Time;durP1;ratioP1;P1;durP2;ratioP2;P2;SDS_P1;SDS_P2;PMS_P1;PMS_P2;Temp;Humidity;BMP_temperature;BMP_pressure;BME280_temperature;BME280_humidity;BME280_pressure;Samples;Min_cycle;Max_cycle;Signal;HPM_P1;HPM_P2
2022/07/10 00:00:35;;;;;;;24.57;10.83;;;14.40;99.90;;;;;;5006621;28;20235;-84
2022/07/10 00:03:01;;;;;;;8.93;3.73;;;14.40;99.90;;;;;;5004852;28;20216;-81
2022/07/10 00:05:27;;;;;;;9.37;4.47;;;14.30;99.90;;;;;;5002409;28;20208;-80
2022/07/10 00:07:52;;;;;;;8.03;3.43;;;14.30;99.90;;;;;;4999155;28;20606;-84
2022/07/10 00:10:19;;;;;;;8.43;3.97;;;14.50;99.90;;;;;;5005658;28;20194;-82
2022/07/10 00:12:46;;;;;;;10.43;3.07;;;14.50;99.90;;;;;;5002840;28;20192;-84
2022/07/10 00:15:13;;;;;;;5.57;3.77;;;14.50;99.90;;;;;;5005680;28;20251;-84
2022/07/10 00:17:39;;;;;;;8.40;3.27;;;14.50;99.90;;;;;;5001434;28;20200;-82
2022/07/10 00:20:06;;;;;;;11.97;3.33;;;14.40;99.90;;;;;;5006202;28;20195;-83
2022/07/10 00:22:34;;;;;;;15.97;9.73;;;14.50;99.90;;;;;;5007773;28;20208;-83
2022/07/10 00:25:01;;;;;;;8.90;3.23;;;14.50;99.90;;;;;;5006634;28;20673;-84
2022/07/10 00:27:26;;;;;;;14.13;7.93;;;14.40;99.90;;;;;;5007552;28;20179;-81
2022/07/10 00:29:52;;;;;;;8.00;3.23;;;14.40;99.90;;;;;;5008483;28;20271;-83
2022/07/10 00:32:17;;;;;;;8.80;3.73;;;14.40;99.90;;;;;;5011161;28;20203;-83
2022/07/10 00:34:43;;;;;;;7.53;3.67;;;14.30;99.90;;;;;;5010238;28;20195;-84
2022/07/10 00:37:08;;;;;;;10.60;4.00;;;14.30;99.90;;;;;;5015747;28;20204;-85
2022/07/10 00:39:34;;;;;;;6.10;3.27;;;14.30;99.90;;;;;;5014223;28;20681;-84
2022/07/10 00:42:15;;;;;;;4.43;2.77;;;14.50;99.90;;;;;;5016802;28;20273;-87
2022/07/10 00:44:43;;;;;;;6.87;3.67;;;14.40;99.90;;;;;;5015679;28;20740;-89
2022/07/10 00:47:10;;;;;;;6.77;2.80;;;14.50;99.90;;;;;;5021713;28;20772;-85
2022/07/10 00:49:37;;;;;;;9.33;3.90;;;14.40;99.90;;;;;;5012398;28;20649;-82
2022/07/10 00:52:09;;;;;;;10.33;3.00;;;14.40;99.90;;;;;;5016892;28;20214;-82
2022/07/10 00:54:36;;;;;;;7.17;3.13;;;14.30;99.90;;;;;;5012990;28;20211;-82
2022/07/10 00:57:03;;;;;;;6.67;3.50;;;14.40;99.90;;;;;;5018771;28;20246;-82
2022/07/10 00:59:29;;;;;;;10.80;3.43;;;14.40;99.90;;;;;;5012671;28;20278;-82
2022/07/10 01:01:55;;;;;;;9.47;2.90;;;14.40;99.90;;;;;;5016251;28;20693;-86
2022/07/10 01:04:21;;;;;;;8.37;4.40;;;14.30;99.90;;;;;;5013006;28;20200;-83
2022/07/10 01:06:47;;;;;;;8.50;3.63;;;14.30;99.90;;;;;;5015979;28;20279;-82
2022/07/10 01:09:12;;;;;;;7.77;3.37;;;14.40;99.90;;;;;;5016651;28;20279;-82
2022/07/10 01:11:38;;;;;;;6.83;2.73;;;14.40;99.90;;;;;;5019027;28;20199;-83
2022/07/10 01:14:04;;;;;;;7.20;3.27;;;14.40;99.90;;;;;;5013955;28;20682;-83
2022/07/10 01:16:30;;;;;;;7.30;2.87;;;14.40;99.90;;;;;;5018208;28;20200;-84
2022/07/10 01:18:57;;;;;;;7.17;2.53;;;14.40;99.90;;;;;;5014426;28;20214;-68
2022/07/10 01:21:24;;;;;;;10.57;4.10;;;14.40;99.90;;;;;;5015353;28;20253;-67
2022/07/10 01:23:50;;;;;;;6.63;3.33;;;14.40;99.90;;;;;;5011927;28;20200;-69
2022/07/10 01:26:15;;;;;;;9.17;2.97;;;14.30;99.90;;;;;;5014665;28;20203;-72
2022/07/10 01:28:41;;;;;;;9.17;3.50;;;14.40;99.90;;;;;;5016036;28;20198;-66
2022/07/10 01:31:09;;;;;;;6.93;3.10;;;14.40;99.90;;;;;;5014066;28;20255;-66
2022/07/10 01:33:35;;;;;;;7.00;3.53;;;14.40;99.90;;;;;;5022590;28;20234;-66
2022/07/10 01:36:01;;;;;;;15.03;5.07;;;14.40;99.90;;;;;;5025159;28;20195;-66
2022/07/10 01:38:26;;;;;;;5.97;3.23;;;14.40;99.90;;;;;;5022788;28;20199;-66
2022/07/10 01:40:52;;;;;;;10.23;3.73;;;14.40;99.90;;;;;;5024419;28;20192;-66
2022/07/10 01:43:17;;;;;;;199.97;186.20;;;14.40;99.90;;;;;;5003288;28;20202;-71
2022/07/10 01:45:44;;;;;;;14.87;4.63;;;14.30;99.90;;;;;;5020907;28;20636;-69
2022/07/10 01:48:09;;;;;;;8.53;4.07;;;14.20;99.90;;;;;;5013960;28;20254;-70
2022/07/10 01:50:35;;;;;;;8.67;4.03;;;14.20;99.90;;;;;;5011296;28;20188;-69
2022/07/10 01:53:00;;;;;;;11.23;4.07;;;14.10;99.90;;;;;;5016368;28;20283;-69
2022/07/10 01:55:26;;;;;;;7.87;3.17;;;14.10;99.90;;;;;;5020935;28;20227;-70
2022/07/10 01:57:51;;;;;;;7.23;2.93;;;14.10;99.90;;;;;;5018340;28;20274;-70
2022/07/10 02:00:17;;;;;;;11.57;3.80;;;14.10;99.90;;;;;;5016626;28;20283;-69
2022/07/10 02:04:40;;;;;;;9.03;3.63;;;14.10;99.90;;;;;;5024706;28;20211;-70
2022/07/10 02:05:28;;;;;;;7.33;3.37;;;14.10;99.90;;;;;;5016176;28;20681;-70
2022/07/10 02:07:53;;;;;;;9.60;3.97;;;14.10;99.90;;;;;;5026268;28;20195;-69
2022/07/10 02:10:19;;;;;;;6.70;3.73;;;14.00;99.90;;;;;;5012241;28;20275;-69
2022/07/10 02:12:44;;;;;;;9.00;3.43;;;14.10;99.90;;;;;;5024676;28;20890;-69
2022/07/10 02:15:10;;;;;;;7.17;3.30;;;14.00;99.90;;;;;;5015697;28;20653;-71
2022/07/10 02:17:35;;;;;;;28.00;10.43;;;14.00;99.90;;;;;;5023879;28;20215;-70
2022/07/10 02:20:01;;;;;;;9.03;3.60;;;13.90;99.90;;;;;;5008752;28;20180;-70
2022/07/10 02:22:26;;;;;;;56.10;41.90;;;13.90;99.90;;;;;;5025380;28;20211;-70
2022/07/10 02:24:53;;;;;;;7.57;3.03;;;13.80;99.90;;;;;;5016004;28;20188;-70
2022/07/10 02:27:18;;;;;;;10.20;3.57;;;13.80;99.90;;;;;;5024194;28;20660;-69
2022/07/10 02:29:43;;;;;;;5.70;3.07;;;13.80;99.90;;;;;;5016196;28;20199;-70
2022/07/10 02:32:09;;;;;;;9.37;4.27;;;13.80;99.90;;;;;;5025164;28;20359;-70
2022/07/10 02:34:34;;;;;;;10.33;4.13;;;13.80;99.90;;;;;;5012440;28;20203;-76
2022/07/10 02:37:00;;;;;;;19.60;10.37;;;13.80;99.90;;;;;;5018878;28;20196;-70
2022/07/10 02:39:25;;;;;;;16.10;4.50;;;13.70;99.90;;;;;;5017741;28;20191;-69
2022/07/10 02:41:51;;;;;;;11.83;6.60;;;13.70;99.90;;;;;;5020141;28;20784;-69
2022/07/10 02:44:16;;;;;;;5.47;2.90;;;13.70;99.90;;;;;;5018730;28;20645;-69
2022/07/10 02:46:42;;;;;;;7.40;3.13;;;13.70;99.90;;;;;;5018051;28;20879;-69
2022/07/10 02:49:08;;;;;;;3.20;2.50;;;13.70;99.90;;;;;;5014527;28;20265;-69
2022/07/10 02:51:33;;;;;;;6.67;2.73;;;13.80;99.90;;;;;;5024664;28;20289;-69
2022/07/10 02:53:59;;;;;;;5.33;2.73;;;13.60;99.90;;;;;;5019414;28;20688;-69
2022/07/10 02:56:24;;;;;;;6.13;2.63;;;13.60;99.90;;;;;;5025515;28;20234;-68
2022/07/10 02:58:50;;;;;;;4.27;2.47;;;13.60;99.90;;;;;;5013531;28;20230;-68
2022/07/10 03:01:15;;;;;;;5.13;2.43;;;13.60;99.90;;;;;;5026542;28;20230;-69
2022/07/10 03:03:41;;;;;;;6.10;3.10;;;13.60;99.90;;;;;;5016265;28;20243;-69
2022/07/10 03:06:06;;;;;;;7.27;2.60;;;13.60;99.90;;;;;;5020931;28;20192;-69
2022/07/10 03:08:32;;;;;;;7.77;3.63;;;13.60;99.90;;;;;;5010082;28;20208;-70
2022/07/10 03:10:57;;;;;;;4.50;2.90;;;13.50;99.90;;;;;;5025030;28;20542;-69
2022/07/10 03:13:22;;;;;;;8.33;3.47;;;13.60;99.90;;;;;;5022043;28;20195;-69
2022/07/10 03:15:48;;;;;;;5.53;3.00;;;13.60;99.90;;;;;;5025276;28;20289;-69
2022/07/10 03:18:14;;;;;;;3.30;2.17;;;13.50;99.90;;;;;;5024737;28;20207;-69
2022/07/10 03:20:39;;;;;;;7.00;3.07;;;13.60;99.90;;;;;;5018911;28;20627;-69
2022/07/10 03:23:04;;;;;;;5.87;2.77;;;13.70;99.90;;;;;;5013241;28;20292;-69
2022/07/10 03:25:30;;;;;;;5.87;3.30;;;13.60;99.90;;;;;;5025637;28;20234;-69
2022/07/10 03:27:55;;;;;;;4.63;2.00;;;13.70;99.90;;;;;;5024414;28;20188;-69
2022/07/10 03:30:21;;;;;;;6.87;2.73;;;13.60;99.90;;;;;;5017650;28;20215;-68
2022/07/10 03:32:46;;;;;;;7.37;2.87;;;13.60;99.90;;;;;;5015634;28;20596;-69
2022/07/10 03:35:12;;;;;;;4.73;2.47;;;13.60;99.90;;;;;;5025615;28;20531;-68
2022/07/10 03:37:37;;;;;;;7.90;3.23;;;13.70;99.90;;;;;;5024095;28;20687;-68
2022/07/10 03:40:03;;;;;;;6.60;3.03;;;13.60;99.90;;;;;;5012612;28;20568;-69
2022/07/10 03:42:29;;;;;;;7.90;3.37;;;13.50;99.90;;;;;;5017923;28;20226;-69
2022/07/10 03:44:55;;;;;;;5.03;2.87;;;13.50;99.90;;;;;;5022845;28;20189;-68
2022/07/10 03:47:20;;;;;;;6.70;2.53;;;13.40;99.90;;;;;;5019412;28;20195;-69
2022/07/10 03:49:46;;;;;;;8.63;2.87;;;13.60;99.90;;;;;;5019109;28;20665;-70
2022/07/10 03:52:11;;;;;;;4.67;2.57;;;13.50;99.90;;;;;;5023919;28;20239;-68
2022/07/10 03:54:37;;;;;;;6.43;3.00;;;13.40;99.90;;;;;;5010966;28;20190;-68
2022/07/10 03:59:47;;;;;;;6.70;2.83;;;13.50;99.90;;;;;;5016077;28;20213;-68
2022/07/10 04:02:12;;;;;;;6.13;2.73;;;13.50;99.90;;;;;;5024376;28;20253;-70
2022/07/10 04:04:38;;;;;;;135.93;125.87;;;13.50;99.90;;;;;;5013296;28;20186;-70
2022/07/10 04:07:04;;;;;;;9.20;5.83;;;13.50;99.90;;;;;;5022330;28;20247;-70
2022/07/10 04:09:30;;;;;;;5.27;2.17;;;13.50;99.90;;;;;;5011948;28;20299;-70
2022/07/10 04:11:56;;;;;;;16.43;7.77;;;13.50;99.90;;;;;;5023290;28;20563;-71
2022/07/10 04:14:21;;;;;;;10.33;3.93;;;13.50;99.90;;;;;;5017695;28;20182;-70
2022/07/10 04:16:47;;;;;;;6.20;3.03;;;13.60;99.90;;;;;;5025588;28;20735;-69
2022/07/10 04:19:12;;;;;;;6.93;2.50;;;13.50;99.90;;;;;;5013217;28;20267;-70
2022/07/10 04:21:38;;;;;;;15.37;4.00;;;13.50;99.90;;;;;;5023613;28;20684;-70
2022/07/10 04:24:04;;;;;;;5.10;3.00;;;13.50;99.90;;;;;;5017550;28;20215;-70
2022/07/10 04:26:30;;;;;;;6.13;2.67;;;13.60;99.90;;;;;;5025345;28;20564;-70
2022/07/10 04:28:55;;;;;;;5.53;2.77;;;13.50;99.90;;;;;;5011040;28;20817;-70
2022/07/10 04:31:21;;;;;;;8.73;2.90;;;13.50;99.90;;;;;;5025577;28;20219;-70
2022/07/10 04:33:46;;;;;;;4.93;2.67;;;13.60;99.90;;;;;;5015181;28;20207;-71
2022/07/10 04:36:12;;;;;;;7.90;3.10;;;13.50;99.90;;;;;;5025952;28;20222;-71
2022/07/10 04:38:37;;;;;;;5.60;2.43;;;13.60;99.90;;;;;;5010135;28;20231;-71
2022/07/10 04:41:03;;;;;;;77.27;71.43;;;13.60;99.90;;;;;;5025547;28;20669;-71
2022/07/10 04:43:30;;;;;;;4.77;2.60;;;13.60;99.90;;;;;;5009968;28;20210;-72
2022/07/10 04:45:56;;;;;;;6.10;3.20;;;13.60;99.90;;;;;;5016389;28;20198;-70
2022/07/10 04:48:21;;;;;;;4.13;2.53;;;13.60;99.90;;;;;;5013981;28;20210;-70
2022/07/10 04:50:47;;;;;;;3.77;2.30;;;13.60;99.90;;;;;;5025438;28;20675;-73
2022/07/10 04:53:12;;;;;;;7.87;3.77;;;13.60;99.90;;;;;;5017305;28;20695;-71
2022/07/10 04:55:38;;;;;;;12.77;4.07;;;13.50;99.90;;;;;;5025109;28;20706;-71
2022/07/10 04:58:03;;;;;;;11.67;3.83;;;13.50;99.90;;;;;;5007476;28;20200;-71
2022/07/10 05:00:29;;;;;;;9.10;4.03;;;13.50;99.90;;;;;;5019664;28;20230;-71
2022/07/10 05:02:54;;;;;;;9.43;3.27;;;13.60;99.90;;;;;;5008017;28;20248;-71
2022/07/10 05:05:19;;;;;;;6.73;3.07;;;13.80;99.90;;;;;;5024835;28;20219;-71
2022/07/10 05:07:45;;;;;;;9.83;2.97;;;13.80;99.90;;;;;;5012844;28;20235;-71
2022/07/10 05:10:10;;;;;;;5.07;2.97;;;13.80;99.90;;;;;;5025265;28;20191;-71
2022/07/10 05:12:36;;;;;;;8.77;2.87;;;13.80;99.90;;;;;;5011195;28;20347;-71
2022/07/10 05:15:02;;;;;;;3.57;2.67;;;13.80;99.90;;;;;;5017553;28;20212;-70
2022/07/10 05:17:31;;;;;;;5.43;2.47;;;13.90;99.90;;;;;;5018525;28;20241;-71
2022/07/10 05:19:57;;;;;;;8.53;2.83;;;14.00;99.90;;;;;;5024917;28;20572;-71
2022/07/10 05:22:24;;;;;;;4.73;2.27;;;14.00;99.90;;;;;;5012682;28;20303;-71
2022/07/10 05:24:49;;;;;;;5.93;2.53;;;14.00;99.90;;;;;;5024942;28;20206;-70
2022/07/10 05:27:17;;;;;;;7.13;2.93;;;14.00;99.90;;;;;;5022931;28;20662;-72
2022/07/10 05:29:43;;;;;;;3.87;2.50;;;14.10;99.90;;;;;;5024766;28;20199;-71
2022/07/10 05:32:08;;;;;;;8.80;2.73;;;14.30;99.90;;;;;;5014284;28;20750;-71
2022/07/10 05:34:34;;;;;;;5.27;2.67;;;14.50;99.90;;;;;;5024463;28;20187;-72
2022/07/10 05:37:00;;;;;;;6.40;3.40;;;14.50;99.90;;;;;;5025832;28;20644;-75
2022/07/10 05:39:26;;;;;;;6.33;2.77;;;14.60;99.90;;;;;;5012501;28;20372;-72
2022/07/10 05:41:52;;;;;;;8.83;2.53;;;14.40;99.90;;;;;;5026707;28;20206;-72
2022/07/10 05:44:19;;;;;;;5.40;3.00;;;14.30;99.90;;;;;;5016873;28;20967;-81
2022/07/10 05:46:45;;;;;;;10.33;3.67;;;14.40;99.90;;;;;;5025827;28;20204;-70
2022/07/10 05:49:11;;;;;;;9.00;3.17;;;14.40;99.90;;;;;;5017983;28;20219;-71
2022/07/10 05:51:37;;;;;;;6.13;3.03;;;14.30;99.90;;;;;;5021771;28;20214;-71
2022/07/10 05:54:03;;;;;;;6.57;2.43;;;14.40;99.90;;;;;;5018232;28;20249;-70
2022/07/10 05:56:28;;;;;;;5.50;2.60;;;14.50;99.90;;;;;;5025406;28;20218;-69
2022/07/10 05:58:55;;;;;;;8.43;3.70;;;14.40;99.90;;;;;;5014308;28;20283;-69
2022/07/10 06:01:21;;;;;;;11.90;7.37;;;14.30;99.90;;;;;;5024247;28;20212;-69
2022/07/10 06:03:47;;;;;;;10.37;3.97;;;14.40;99.90;;;;;;5012021;28;20650;-70
2022/07/10 06:06:16;;;;;;;11.93;6.90;;;14.30;99.90;;;;;;5026554;28;20187;-70
2022/07/10 06:08:42;;;;;;;7.27;3.37;;;14.30;99.90;;;;;;5018071;28;20191;-70
2022/07/10 06:11:08;;;;;;;5.13;3.60;;;14.30;99.90;;;;;;5025312;28;20195;-71
2022/07/10 06:13:33;;;;;;;5.73;2.93;;;14.30;99.90;;;;;;5017373;28;20241;-71
2022/07/10 06:15:59;;;;;;;8.87;2.87;;;14.50;99.90;;;;;;5026840;28;20199;-71
2022/07/10 06:18:24;;;;;;;5.47;2.60;;;14.50;99.90;;;;;;5011515;28;20210;-71
2022/07/10 06:20:50;;;;;;;5.30;2.93;;;14.70;99.90;;;;;;5027872;28;20238;-70
2022/07/10 06:23:15;;;;;;;9.10;3.13;;;14.80;99.90;;;;;;5014138;28;20200;-72
2022/07/10 06:25:41;;;;;;;5.10;3.27;;;14.70;99.90;;;;;;5024365;28;20250;-73
2022/07/10 06:28:06;;;;;;;4.10;2.13;;;14.70;99.90;;;;;;5015220;28;20207;-73
2022/07/10 06:30:32;;;;;;;12.97;3.23;;;14.80;99.90;;;;;;5021707;28;20200;-74
2022/07/10 06:32:57;;;;;;;6.20;3.03;;;15.00;99.90;;;;;;5014513;28;20242;-73
2022/07/10 06:35:23;;;;;;;10.83;3.97;;;14.90;99.90;;;;;;5027539;28;20187;-73
2022/07/10 06:37:48;;;;;;;6.87;3.30;;;14.90;99.90;;;;;;5021434;28;20615;-72
2022/07/10 06:40:17;;;;;;;4.33;3.00;;;14.90;99.90;;;;;;5026856;28;20510;-72
2022/07/10 06:42:42;;;;;;;8.73;3.57;;;14.80;99.90;;;;;;5014987;28;20790;-72
2022/07/10 06:45:09;;;;;;;11.03;3.63;;;14.80;99.90;;;;;;5025276;28;20568;-72
2022/07/10 06:50:18;;;;;;;5.90;2.63;;;14.70;99.90;;;;;;5011266;28;20694;-72
2022/07/10 06:52:44;;;;;;;6.63;2.43;;;14.80;99.90;;;;;;5015038;28;20220;-73
2022/07/10 06:55:10;;;;;;;4.97;2.50;;;14.90;99.90;;;;;;5027007;28;20632;-73
2022/07/10 06:57:37;;;;;;;12.33;3.40;;;15.10;99.90;;;;;;5025247;28;20218;-73
2022/07/10 07:00:03;;;;;;;9.13;3.37;;;15.10;99.90;;;;;;5025959;28;20195;-72
2022/07/10 07:02:29;;;;;;;8.47;3.10;;;15.30;99.90;;;;;;5013532;28;20223;-72
2022/07/10 07:04:54;;;;;;;3.80;2.37;;;15.30;99.90;;;;;;5022539;28;20196;-72
2022/07/10 07:07:20;;;;;;;5.50;2.43;;;15.20;99.90;;;;;;5024316;28;20206;-72
2022/07/10 07:09:49;;;;;;;7.23;3.57;;;15.20;99.90;;;;;;5026519;28;20227;-72
2022/07/10 07:12:15;;;;;;;5.90;3.53;;;15.50;99.90;;;;;;5025133;28;20216;-71
2022/07/10 07:14:40;;;;;;;10.53;3.47;;;15.30;99.90;;;;;;5026907;28;20192;-72
2022/07/10 07:17:08;;;;;;;7.50;2.83;;;15.40;99.90;;;;;;5016476;28;20208;-72
2022/07/10 07:23:09;;;;;;;5.57;2.63;;;15.30;99.90;;;;;;5020731;28;20228;-72
2022/07/10 07:25:05;;;;;;;6.50;2.63;;;15.60;99.90;;;;;;5015362;28;20194;-72
2022/07/10 07:27:33;;;;;;;14.03;3.73;;;15.20;99.90;;;;;;5018891;28;20200;-72
2022/07/10 07:30:06;;;;;;;8.13;3.37;;;15.10;99.90;;;;;;5025880;28;20305;-72
2022/07/10 07:32:32;;;;;;;9.43;3.23;;;15.10;99.90;;;;;;4997413;28;20212;-72
2022/07/10 07:34:58;;;;;;;4.37;2.67;;;15.20;99.90;;;;;;5021251;28;20196;-72
2022/07/10 07:37:33;;;;;;;5.87;3.20;;;15.10;99.90;;;;;;5013290;28;20942;-72
2022/07/10 07:39:59;;;;;;;8.00;3.20;;;15.10;99.90;;;;;;4997859;28;20608;-72
2022/07/10 07:42:24;;;;;;;7.67;2.63;;;15.10;99.90;;;;;;5018184;28;20498;-72
2022/07/10 07:44:50;;;;;;;9.43;3.43;;;15.10;99.90;;;;;;5026423;28;20711;-72
2022/07/10 07:47:15;;;;;;;7.50;4.37;;;15.20;99.90;;;;;;5014248;28;20200;-72
2022/07/10 07:49:41;;;;;;;5.87;3.07;;;15.40;99.90;;;;;;5023073;28;20705;-72
2022/07/10 07:52:07;;;;;;;8.63;2.33;;;15.60;99.90;;;;;;5013888;28;20302;-72
2022/07/10 07:54:32;;;;;;;8.07;2.63;;;15.90;99.90;;;;;;5025600;28;20219;-72
2022/07/10 07:56:58;;;;;;;8.33;3.73;;;16.30;99.90;;;;;;5024172;28;20807;-72
2022/07/10 07:59:23;;;;;;;6.43;2.60;;;16.50;99.90;;;;;;5013472;28;20606;-71
2022/07/10 08:01:49;;;;;;;6.63;2.33;;;16.60;99.50;;;;;;5023418;28;20527;-71
2022/07/10 08:04:14;;;;;;;5.37;2.67;;;17.00;99.40;;;;;;5015274;28;20207;-73
2022/07/10 08:06:40;;;;;;;6.17;2.63;;;17.00;99.00;;;;;;5018595;28;20247;-72
2022/07/10 08:09:05;;;;;;;6.77;3.20;;;17.20;98.70;;;;;;5012767;28;20634;-72
2022/07/10 08:11:31;;;;;;;8.47;2.50;;;16.80;98.80;;;;;;5023776;28;20242;-73
2022/07/10 08:13:56;;;;;;;11.37;3.50;;;16.60;97.50;;;;;;5013359;28;20546;-73
2022/07/10 08:16:22;;;;;;;13.27;8.23;;;16.50;97.40;;;;;;5020991;28;20600;-72
2022/07/10 08:18:47;;;;;;;6.70;2.93;;;16.40;98.00;;;;;;5018692;28;20192;-73
2022/07/10 08:21:13;;;;;;;8.43;5.73;;;16.40;98.80;;;;;;5022285;28;20286;-72
2022/07/10 08:23:38;;;;;;;7.90;2.93;;;16.70;99.10;;;;;;5012619;28;20534;-71
2022/07/10 08:26:04;;;;;;;7.93;3.40;;;16.70;98.90;;;;;;5022274;28;20824;-71
2022/07/10 08:28:29;;;;;;;4.30;2.27;;;16.90;99.20;;;;;;5010314;28;20615;-71
2022/07/10 08:30:55;;;;;;;7.13;3.30;;;16.90;98.70;;;;;;5025578;28;20199;-71
2022/07/10 08:33:20;;;;;;;9.33;4.03;;;16.50;98.70;;;;;;5009427;28;20217;-71
2022/07/10 08:35:46;;;;;;;7.83;2.70;;;16.40;98.90;;;;;;5021663;28;20290;-71
2022/07/10 08:38:12;;;;;;;5.60;2.90;;;16.50;99.10;;;;;;5012498;28;20685;-71
2022/07/10 08:40:38;;;;;;;7.17;2.63;;;16.50;99.20;;;;;;5019600;28;20198;-72
2022/07/10 08:43:05;;;;;;;6.40;2.83;;;16.50;99.60;;;;;;5012867;28;20257;-71
2022/07/10 08:45:35;;;;;;;7.23;2.77;;;16.80;99.20;;;;;;5020166;28;20200;-71
2022/07/10 08:48:04;;;;;;;8.57;3.23;;;16.70;99.80;;;;;;5009274;28;20311;-71
2022/07/10 08:50:33;;;;;;;8.47;2.97;;;16.50;99.90;;;;;;5025163;28;20199;-72
2022/07/10 08:53:12;;;;;;;6.20;2.40;;;16.60;99.90;;;;;;5012877;28;20269;-71
2022/07/10 08:55:38;;;;;;;5.53;3.07;;;16.50;99.70;;;;;;5005968;28;20293;-71
2022/07/10 08:58:06;;;;;;;7.87;2.33;;;16.40;99.10;;;;;;5007619;28;20671;-71
2022/07/10 09:00:32;;;;;;;5.43;3.23;;;16.50;99.50;;;;;;5019527;28;20192;-71
2022/07/10 09:02:57;;;;;;;8.10;3.27;;;16.80;98.80;;;;;;5008364;28;20204;-72
2022/07/10 09:05:26;;;;;;;5.67;2.77;;;16.60;98.50;;;;;;5025110;28;20238;-73
2022/07/10 09:07:53;;;;;;;6.20;2.90;;;16.80;97.80;;;;;;5014098;28;20329;-72
2022/07/10 09:10:21;;;;;;;14.67;3.30;;;16.80;97.30;;;;;;5026443;28;20187;-72
2022/07/10 09:13:02;;;;;;;9.47;3.50;;;17.00;97.30;;;;;;5016127;28;20250;-73
2022/07/10 09:15:31;;;;;;;7.70;2.73;;;17.10;96.60;;;;;;5027899;28;20192;-72
2022/07/10 09:18:00;;;;;;;9.47;2.90;;;17.00;96.80;;;;;;5027631;28;20248;-73
2022/07/10 09:20:37;;;;;;;10.63;2.97;;;16.90;97.30;;;;;;5029230;28;20638;-82
2022/07/10 09:23:25;;;;;;;9.57;3.37;;;17.10;97.20;;;;;;5017605;28;20211;-81
2022/07/10 09:25:53;;;;;;;8.67;2.97;;;16.80;96.80;;;;;;4991047;28;20188;-82
2022/07/10 09:28:22;;;;;;;7.27;2.60;;;17.20;96.80;;;;;;5013154;28;20207;-82
2022/07/10 09:30:50;;;;;;;6.73;2.60;;;17.40;96.40;;;;;;5030645;28;20200;-81
2022/07/10 09:33:26;;;;;;;6.43;2.60;;;17.60;96.60;;;;;;5017172;28;20223;-79
2022/07/10 09:36:07;;;;;;;7.60;2.60;;;18.00;96.60;;;;;;5030098;28;20198;-81
2022/07/10 09:38:46;;;;;;;10.57;4.10;;;18.30;95.40;;;;;;5004772;28;20219;-74
2022/07/10 09:41:24;;;;;;;12.13;2.93;;;17.40;95.80;;;;;;5010669;28;20222;-89
2022/07/10 09:43:56;;;;;;;4.13;1.77;;;17.30;96.10;;;;;;5016261;28;20196;-87
2022/07/10 09:46:27;;;;;;;5.10;2.03;;;17.40;95.90;;;;;;5018501;28;20192;-87
2022/07/10 09:49:13;;;;;;;10.17;3.00;;;17.60;95.90;;;;;;5026955;28;20212;-89
2022/07/10 09:51:43;;;;;;;6.20;2.40;;;17.80;95.20;;;;;;5011401;28;20208;-83
2022/07/10 09:54:10;;;;;;;10.57;4.70;;;17.40;95.00;;;;;;5025326;28;20180;-87
2022/07/10 09:56:42;;;;;;;6.70;3.47;;;17.20;95.30;;;;;;5028249;28;20568;-80
2022/07/10 09:59:10;;;;;;;2.87;1.90;;;17.10;96.00;;;;;;5027994;28;20262;-82
2022/07/10 10:01:37;;;;;;;10.70;3.50;;;17.10;95.50;;;;;;5018513;28;20220;-87
2022/07/10 10:04:04;;;;;;;7.03;2.73;;;17.30;95.60;;;;;;5017235;28;20192;-88
2022/07/10 10:06:31;;;;;;;8.63;2.87;;;17.50;95.10;;;;;;5009736;28;20216;-86
2022/07/10 10:09:05;;;;;;;5.87;3.43;;;17.60;95.30;;;;;;5030586;28;20236;-81
2022/07/10 10:11:35;;;;;;;6.10;3.03;;;17.70;94.50;;;;;;5016231;28;20250;-80
2022/07/10 10:14:02;;;;;;;5.80;2.63;;;17.60;94.80;;;;;;5034073;28;20249;-90
2022/07/10 10:16:28;;;;;;;6.50;2.93;;;17.50;94.60;;;;;;5041568;28;20187;-89
2022/07/10 10:21:39;;;;;;;5.03;2.03;;;17.30;95.10;;;;;;5002970;28;20247;-88
2022/07/10 10:24:06;;;;;;;2.33;1.60;;;17.60;94.60;;;;;;5032431;28;20204;-89
2022/07/10 10:26:32;;;;;;;3.17;1.47;;;17.80;94.10;;;;;;5035553;28;20249;-90
2022/07/10 10:29:00;;;;;;;7.87;2.50;;;18.00;93.50;;;;;;5031765;28;20686;-88
2022/07/10 10:31:30;;;;;;;5.20;2.00;;;17.80;92.60;;;;;;5032468;28;20272;-90
2022/07/10 10:33:57;;;;;;;3.73;1.90;;;18.10;92.10;;;;;;5019563;28;20223;-89
2022/07/10 10:36:52;;;;;;;3.63;1.97;;;18.10;91.90;;;;;;5033955;28;20693;-90
2022/07/10 10:39:18;;;;;;;5.27;2.87;;;18.10;92.30;;;;;;5004178;28;20208;-86
2022/07/10 10:41:52;;;;;;;5.27;2.67;;;17.90;91.60;;;;;;5011406;28;20561;-86
2022/07/10 10:44:18;;;;;;;9.03;2.77;;;17.80;92.10;;;;;;5021659;28;20334;-87
2022/07/10 10:46:49;;;;;;;4.43;2.73;;;18.10;92.20;;;;;;5025307;28;20620;-93
2022/07/10 10:49:16;;;;;;;3.97;1.90;;;18.50;92.70;;;;;;5031214;28;20239;-92
2022/07/10 10:51:58;;;;;;;6.77;2.70;;;18.20;91.30;;;;;;5021267;28;20283;-85
2022/07/10 10:54:30;;;;;;;5.27;2.70;;;18.10;91.60;;;;;;5012306;28;20180;-85
2022/07/10 10:57:15;;;;;;;8.27;2.70;;;18.50;91.60;;;;;;5009885;28;20224;-88
2022/07/10 10:59:52;;;;;;;7.53;2.87;;;18.40;91.90;;;;;;5017639;28;20189;-87
2022/07/10 11:02:24;;;;;;;7.93;2.47;;;18.50;91.10;;;;;;5019887;28;20198;-89
2022/07/10 11:05:19;;;;;;;9.80;2.47;;;18.80;91.80;;;;;;5018459;28;20644;-85
2022/07/10 11:08:02;;;;;;;4.97;1.83;;;18.20;91.10;;;;;;5008962;28;20200;-86
2022/07/10 11:10:35;;;;;;;5.67;3.57;;;18.20;91.30;;;;;;5011864;28;20215;-79
2022/07/10 11:13:05;;;;;;;6.70;2.70;;;18.40;91.50;;;;;;5006367;28;20250;-86
2022/07/10 11:15:35;;;;;;;8.07;2.63;;;18.30;91.70;;;;;;5009990;28;20188;-87
2022/07/10 11:18:07;;;;;;;8.07;2.33;;;18.30;91.30;;;;;;5012081;28;20287;-87
2022/07/10 11:20:34;;;;;;;4.73;2.87;;;18.60;91.40;;;;;;5013035;28;20199;-84
2022/07/10 11:23:28;;;;;;;8.80;2.57;;;18.90;90.70;;;;;;5008005;28;20213;-85
2022/07/10 11:26:01;;;;;;;3.73;2.10;;;19.40;90.50;;;;;;5006751;28;20244;-82
2022/07/10 11:28:59;;;;;;;8.43;2.33;;;19.30;90.70;;;;;;5008877;28;20704;-85
2022/07/10 11:31:26;;;;;;;6.03;2.40;;;19.10;89.90;;;;;;5006506;28;20827;-84
2022/07/10 11:33:53;;;;;;;6.30;2.37;;;19.50;90.40;;;;;;5015980;28;20613;-86
2022/07/10 11:36:25;;;;;;;5.90;2.67;;;19.40;90.50;;;;;;5030025;28;20201;-86
2022/07/10 11:39:05;;;;;;;7.10;2.47;;;19.40;89.70;;;;;;5010428;28;20568;-88
2022/07/10 11:41:31;;;;;;;5.57;2.17;;;19.40;89.70;;;;;;5010849;28;20205;-88
2022/07/10 11:44:01;;;;;;;8.10;3.17;;;19.40;89.10;;;;;;5014545;28;20203;-88
2022/07/10 11:46:28;;;;;;;4.27;1.80;;;20.30;86.30;;;;;;5028410;28;20188;-89
2022/07/10 11:48:56;;;;;;;9.47;2.73;;;20.00;85.70;;;;;;5030376;28;20234;-92
2022/07/10 11:51:34;;;;;;;6.40;2.37;;;19.40;86.00;;;;;;5010312;28;20274;-87
2022/07/10 11:54:09;;;;;;;4.13;2.03;;;18.70;88.60;;;;;;5012619;28;20639;-86
2022/07/10 11:56:36;;;;;;;6.50;2.90;;;18.20;90.20;;;;;;5010071;28;20235;-86
2022/07/10 11:59:05;;;;;;;7.67;2.67;;;18.20;90.80;;;;;;5007344;28;20204;-82
2022/07/10 12:01:34;;;;;;;8.87;3.10;;;18.30;90.90;;;;;;5010478;28;20205;-83
2022/07/10 12:04:05;;;;;;;4.53;2.30;;;18.40;90.20;;;;;;5008073;28;20248;-84
2022/07/10 12:06:33;;;;;;;5.47;2.70;;;18.40;90.00;;;;;;5008653;28;20204;-84
2022/07/10 12:09:03;;;;;;;10.97;3.37;;;18.80;88.70;;;;;;5007387;28;20185;-84
2022/07/10 12:11:29;;;;;;;5.93;2.43;;;19.20;87.70;;;;;;5007965;28;20330;-85
2022/07/10 12:14:18;;;;;;;3.17;1.60;;;19.50;86.70;;;;;;5008068;28;20193;-85
2022/07/10 12:16:49;;;;;;;6.03;2.47;;;19.10;87.90;;;;;;5017864;28;20250;-88
2022/07/10 12:19:22;;;;;;;3.43;2.03;;;19.20;87.40;;;;;;5007765;28;20193;-80
2022/07/10 12:21:49;;;;;;;4.07;2.17;;;19.30;85.30;;;;;;5004522;28;20196;-84
2022/07/10 12:24:19;;;;;;;9.03;2.23;;;18.80;86.60;;;;;;5012820;28;20221;-82
2022/07/10 12:26:45;;;;;;;5.30;1.83;;;18.60;86.70;;;;;;5006115;28;20717;-81
2022/07/10 12:29:21;;;;;;;2.07;1.90;;;18.50;86.70;;;;;;5008681;28;20223;-85
2022/07/10 12:31:49;;;;;;;4.83;2.17;;;18.40;88.70;;;;;;5007659;28;20765;-89
2022/07/10 12:34:15;;;;;;;4.60;2.13;;;18.30;90.30;;;;;;5013016;28;20235;-87
2022/07/10 12:36:49;;;;;;;8.57;1.87;;;18.60;90.20;;;;;;5011790;28;20199;-86
2022/07/10 12:39:21;;;;;;;8.50;2.60;;;18.90;89.50;;;;;;5007550;28;20217;-83
2022/07/10 12:42:06;;;;;;;5.70;2.37;;;19.10;86.80;;;;;;5005595;28;20321;-86
2022/07/10 12:44:37;;;;;;;5.40;3.43;;;19.20;86.90;;;;;;5008979;28;20944;-92
2022/07/10 12:47:14;;;;;;;6.63;1.90;;;19.10;86.60;;;;;;5009760;28;20262;-81
2022/07/10 12:49:52;;;;;;;7.33;3.73;;;19.10;87.60;;;;;;5008095;28;20213;-83
2022/07/10 12:52:35;;;;;;;6.03;2.50;;;19.10;87.10;;;;;;5006690;28;20253;-82
2022/07/10 12:55:21;;;;;;;5.13;2.23;;;19.40;86.90;;;;;;5005250;28;20716;-90
2022/07/10 12:57:52;;;;;;;9.67;2.93;;;20.50;85.90;;;;;;5009216;28;20312;-88
2022/07/10 13:00:20;;;;;;;5.30;2.67;;;21.30;83.20;;;;;;5008617;28;20208;-84